Latest Coastal Weather Observations for Hobart Airport

IDT60701

Issued at 3:25 pm EDT Friday 28 November 2014 (issued every 10 minutes, with the page automatically refreshed every 10 minutes)

About coastal observations | Map of coastal stations | Coastal observations for TAS | Marine services | Other Formats
Station Details ID: 094008 Name: HOBART AIRPORT Lat: -42.83 Lon: 147.50 Height: 4.0 m
Data from the previous 72 hours. | See also: Recent months at Hobart Airport
Date/Time
EDT
Temp

°C
Wind Pressure Rain
since 9am
mm
Weather Cloud Vis
km
Sea
Height
m
Swell
Dir
 
Speed
knots
Gust
knots
hPa Trend Height
m
Period
s
Dir
28/03:00pm 17.5 SSE 10 13 1020.9 F 0.0 Smoke Mostly cloudy 35 - - - -
28/02:30pm 16.0 SSE 11 14 1021.2 - 0.0 - Mostly clear 10 - - - -
28/02:00pm 17.0 SE 8 11 1021.4 - 0.0 - Mostly clear 10 - - - -
28/01:30pm 16.4 E 6 9 1021.6 - 0.0 - Mostly clear 10 - - - -
28/01:00pm 16.5 SE 8 11 1022.0 - 0.0 - Mostly clear 10 - - - -
28/12:30pm 15.5 ESE 9 14 1022.2 - 0.0 - Mostly clear 10 - - - -
28/12:00pm 16.1 SSE 8 11 1022.4 F 0.0 Fine Mostly cloudy 30 - - - -
28/11:30am 15.5 SSE 7 10 1022.8 - 0.0 - Mostly clear 10 - - - -
28/11:00am 14.0 SE 7 10 1023.0 - 0.0 - Mostly clear 10 - - - -
28/10:30am 14.3 SE 8 11 1023.2 - 0.0 - Partly cloudy 10 - - - -
28/10:00am 14.5 SE 5 12 1023.2 - 0.0 - Partly cloudy 10 - - - -
28/09:30am 13.6 WNW 6 8 1023.5 - 0.0 - Mostly cloudy 10 - - - -
28/09:00am 13.0 NNW 9 14 1023.8 F 0.2 Fine Mostly cloudy 30 - - - -
28/08:30am 12.7 WNW 8 13 1023.8 - 0.2 - Mostly clear 10 - - - -
28/08:00am 13.0 NW 8 10 1023.8 - 0.2 - Mostly clear 10 - - - -
28/07:30am 12.2 NW 7 9 1023.8 - 0.2 - Mostly clear 10 - - - -
28/07:00am 11.5 WNW 6 9 1023.6 - 0.2 - Mostly clear 10 - - - -
28/06:30am 11.4 NW 7 8 1023.6 - 0.2 - Mostly clear 10 - - - -
28/06:00am 10.9 NNE 5 7 1023.4 R 0.2 Haze Mostly cloudy 25 - - - -
28/05:30am 10.5 N 6 8 1023.4 - 0.2 - Mostly clear 10 - - - -
28/05:00am 10.7 N 3 4 1023.2 - 0.2 - Mostly clear 10 - - - -
28/04:30am 11.0 SW 5 6 1023.4 - 0.2 - Mostly cloudy 10 - - - -
28/04:00am 10.8 SSW 5 7 1023.1 - 0.2 - Mostly cloudy 10 - - - -
28/03:30am 10.9 SSW 5 8 1022.9 - 0.2 - Mostly cloudy 10 - - - -
28/03:00am 11.1 S 7 8 1023.1 F 0.2 Haze Mostly cloudy 25 - - - -
28/02:30am 11.1 S 6 8 1023.2 - 0.2 - Mostly cloudy 10 - - - -
28/02:00am 11.0 S 5 7 1023.4 - 0.2 - Mostly cloudy 10 - - - -
28/01:30am 11.3 WSW 2 4 1023.8 - 0.2 - Mostly cloudy 10 - - - -
28/01:00am 10.5 NW 1 2 1023.9 - 0.2 - Mostly cloudy 10 - - - -
28/12:30am 10.2 CALM 0 4 1024.1 - 0.2 - Mostly cloudy 10 - - - -
28/12:00am 10.2 SSW 1 3 1024.2 F 0.2 HAZE Mostly cloudy 10 - - - -
 
Date/Time
EDT
Temp

°C
Wind Pressure Rain
since 9am
mm
Weather Cloud Vis
km
Sea
Height
m
Swell
Dir
 
Speed
knots
Gust
knots
hPa Trend Height
m
Period
s
Dir
27/11:30pm 10.6 CALM 0 0 1024.4 - 0.2 - Mostly cloudy 10 - - - -
27/11:00pm 10.7 S 6 8 1024.4 - 0.2 - Mostly cloudy 10 - - - -
27/10:30pm 10.6 S 7 8 1024.7 - 0.2 - Mostly clear 10 - - - -
27/10:00pm 11.2 S 8 11 1024.6 - 0.2 - Mostly clear 10 - - - -
27/09:30pm 11.2 S 9 12 1024.3 - 0.2 - Mostly clear 10 - - - -
27/09:00pm 12.0 S 9 14 1024.2 F 0.2 Haze Partly cloudy 20 - - - -
27/08:30pm 12.4 S 10 14 1024.2 - 0.2 - Mostly clear 10 - - - -
27/08:00pm 12.7 SSE 13 19 1023.8 - 0.2 - Mostly clear 10 - - - -
27/07:30pm 13.4 SSE 16 21 1023.6 - 0.2 - Mostly clear 10 - - - -
27/07:00pm 13.7 SSE 18 22 1023.3 - 0.2 - Mostly clear 10 - - - -
27/06:30pm 14.3 SSE 16 21 1023.1 - 0.2 - Mostly clear 10 - - - -
27/06:00pm 14.5 SE 18 25 1022.9 F 0.2 Haze Mostly clear 25 - - - -
27/05:30pm 14.5 SSE 21 28 1022.7 - 0.2 - Mostly clear 10 - - - -
27/05:00pm 14.9 SSE 22 28 1022.5 - 0.2 - Mostly clear 10 - - - -
27/04:30pm 16.7 SSE 20 26 1022.8 - 0.2 - Mostly clear 10 - - - -
27/04:00pm 17.4 S 19 23 1022.7 - 0.2 - Mostly clear 10 - - - -
27/03:30pm 16.7 SE 19 25 1022.6 - 0.2 - Mostly clear 10 - - - -
27/03:00pm 17.6 S 18 22 1022.8 R 0.2 Haze Mostly clear 30 - - - -
27/02:30pm 18.1 S 16 24 1022.9 - 0.2 - Mostly clear 10 - - - -
27/02:00pm 17.8 SSW 15 21 1022.7 - 0.2 - Mostly clear 10 - - - -
27/01:45pm 17.6 SSW 16 26 1022.7 - 0.2 - Mostly clear 10 - - - -
27/01:30pm 18.5 SSW 17 25 1022.9 - 0.2 - Mostly clear 10 - - - -
27/01:00pm 17.4 S 18 25 1022.9 - 0.2 - Mostly clear 10 - - - -
27/12:30pm 16.9 SSW 15 21 1023.1 - 0.2 - Mostly clear 10 - - - -
27/12:00pm 16.5 SSW 16 22 1023.3 R 0.2 Fine Partly cloudy 35 - - - -
27/11:30am 16.2 SW 16 24 1023.3 - 0.2 - Partly cloudy 10 - - - -
27/11:00am 16.7 SSW 18 25 1023.4 - 0.2 - Partly cloudy 10 - - - -
27/10:30am 15.6 SSW 17 24 1023.5 - 0.2 - Mostly clear 10 - - - -
27/10:00am 14.5 SSW 18 25 1023.5 - 0.2 - Mostly clear 10 - - - -
27/09:54am 14.6 SSW 15 25 1023.5 - 0.0 - Mostly clear 10 - - - -
27/09:49am 15.0 SSW 15 20 1023.6 - 0.0 - Mostly clear 10 - - - -
27/09:30am 14.1 W 7 10 1023.7 - 0.0 - Mostly clear 10 - - - -
27/09:00am 13.8 NNW 8 11 1023.5 R 0.0 Haze Partly cloudy 30 - - - -
27/08:30am 14.3 SW 12 17 1023.4 - 0.0 - Mostly clear 10 - - - -
27/08:00am 13.1 W 7 14 1023.5 - 0.0 - Partly cloudy 10 - - - -
27/07:30am 11.2 NNW 3 5 1023.3 - 0.0 - Mostly cloudy 10 - - - -
27/07:00am 11.5 W 7 9 1022.8 - 0.0 - Mostly cloudy 10 - - - -
27/06:30am 10.6 WNW 8 9 1022.5 - 0.0 - Mostly cloudy 10 - - - -
27/06:00am 10.4 NW 7 9 1022.3 R 0.0 Fine Mostly cloudy 30 - - - -
27/05:30am 10.4 WNW 5 7 1022.1 - 0.0 - Mostly cloudy 10 - - - -
27/05:00am 11.2 WSW 10 18 1021.6 - 0.0 - Mostly cloudy 10 - - - -
27/04:30am 11.2 W 10 13 1021.3 - 0.0 - Mostly cloudy 10 - - - -
27/04:00am 11.3 WSW 14 19 1021.0 - 0.0 - Partly cloudy 10 - - - -
27/03:30am 10.9 WSW 8 13 1020.9 - 0.0 - Mostly cloudy 10 - - - -
27/03:00am 10.8 WSW 11 15 1020.9 R 0.0 Fine Mostly cloudy 30 - - - -
27/02:30am 11.5 SW 13 18 1021.2 - 0.0 - Mostly cloudy 10 - - - -
27/02:00am 11.7 WSW 11 19 1021.1 - 0.0 - Mostly cloudy 10 - - - -
27/01:30am 11.5 W 8 13 1021.1 - 0.0 - Mostly cloudy 10 - - - -
27/01:00am 11.2 WSW 8 10 1021.1 - 0.0 - Mostly cloudy 10 - - - -
27/12:30am 11.2 W 6 14 1021.2 - 0.0 - Partly cloudy 10 - - - -
27/12:00am 11.6 W 5 8 1021.1 R 0.0 Fine Mostly cloudy 30 - - - -
 
Date/Time
EDT
Temp

°C
Wind Pressure Rain
since 9am
mm
Weather Cloud Vis
km
Sea
Height
m
Swell
Dir
 
Speed
knots
Gust
knots
hPa Trend Height
m
Period
s
Dir
26/11:30pm 11.1 W 8 10 1021.0 - 0.0 - Partly cloudy 10 - - - -
26/11:00pm 11.6 WSW 12 16 1020.9 - 0.0 - Partly cloudy 10 - - - -
26/10:30pm 11.7 W 11 15 1020.8 - 0.0 - Partly cloudy 10 - - - -
26/10:00pm 11.4 W 9 12 1020.8 - 0.0 - Partly cloudy 10 - - - -
26/09:30pm 11.4 W 7 9 1020.3 - 0.0 - Partly cloudy 10 - - - -
26/09:00pm 12.0 SW 12 17 1019.9 R 0.0 Fine Mostly clear 30 - - - -
26/08:30pm 12.6 SW 11 16 1019.7 - 0.0 - Partly cloudy 10 - - - -
26/08:00pm 13.2 SW 12 16 1019.0 - 0.0 - Partly cloudy 10 - - - -
26/07:30pm 13.7 SW 13 18 1018.6 - 0.0 - Partly cloudy 10 - - - -
26/07:00pm 14.4 WSW 13 20 1018.1 - 0.0 - Partly cloudy 10 - - - -
26/06:30pm 14.7 SW 13 21 1017.7 - 0.0 - Partly cloudy 10 - - - -
26/06:00pm 15.4 WSW 15 21 1017.1 R 0.0 Distant precip. Partly cloudy 35 - - - -
26/05:30pm 15.7 WSW 16 21 1017.0 - 0.0 - Mostly cloudy 10 - - - -
26/05:00pm 15.8 SW 12 21 1016.7 - 0.0 - Mostly cloudy 10 - - - -
26/04:30pm 15.7 SW 12 16 1016.6 - 0.0 - Mostly cloudy 10 - - - -
26/04:00pm 15.7 SW 14 20 1016.2 - 0.0 - Mostly clear 10 - - - -
26/03:30pm 14.6 SSW 16 22 1016.2 - 0.0 - Mostly clear 10 - - - -
26/03:00pm 16.0 WSW 13 22 1016.0 R 0.0 Distant precip. Mostly cloudy 35 - - - -
26/02:30pm 15.4 SW 16 21 1016.0 - 0.0 - Mostly cloudy 10 - - - -
26/02:00pm 15.6 S 15 19 1015.6 - 0.0 - Mostly cloudy 10 - - - -
26/01:30pm 15.7 SW 11 17 1015.6 - 0.0 - Partly cloudy 10 - - - -
26/01:00pm 15.8 SW 11 17 1015.3 - 0.0 - Mostly cloudy 10 - - - -
26/12:37pm 16.5 WSW 18 28 1015.2 - 0.0 - Mostly cloudy 10 - - - -
26/12:30pm 16.5 SW 14 24 1015.3 - 0.0 - Mostly cloudy 10 - - - -
26/12:00pm 14.3 SW 14 18 1015.1 R 0.0 Showers Mostly cloudy 35 - - - -
26/11:30am 13.6 SW 15 22 1014.7 - 0.0 Showers Mostly clear 10 - - - -
26/11:00am 14.6 SW 17 30 1014.7 - 0.0 - Mostly clear 10 - - - -
26/10:49am 14.8 SW 15 26 1014.6 - 0.0 - Mostly clear 10 - - - -
26/10:30am 13.8 SW 13 19 1014.3 - 0.0 - Mostly cloudy 10 - - - -
26/10:00am 14.9 WSW 12 18 1013.7 - 0.0 - Mostly cloudy 10 - - - -
26/09:30am 14.0 WNW 11 15 1013.3 - 0.0 - Mostly cloudy 10 - - - -
26/09:00am 13.6 NW 12 17 1012.9 R 0.2 Haze Mostly cloudy 35 - - - -
26/08:30am 13.5 NW 11 21 1012.6 - 0.2 - Partly cloudy 10 - - - -
26/08:00am 13.4 NW 11 16 1012.2 - 0.2 - Mostly cloudy 10 - - - -
26/07:30am 12.7 WNW 11 17 1012.0 - 0.2 - Mostly cloudy 10 - - - -
26/07:00am 12.4 NW 8 13 1011.4 - 0.2 - Partly cloudy 10 - - - -
26/06:30am 13.0 NW 9 12 1011.0 - 0.2 - Mostly clear 10 - - - -
26/06:00am 12.7 W 17 21 1010.4 R 0.2 Fine Partly cloudy 40 - - - -
26/05:36am 12.5 WSW 16 26 1009.8 - 0.2 - Mostly clear 10 - - - -
26/05:30am 11.6 SSE 8 18 1010.0 - 0.2 - Mostly clear 10 - - - -
26/05:00am 11.0 S 7 9 1009.3 - 0.2 - Mostly clear 10 - - - -
26/04:30am 10.3 ENE 4 6 1008.9 - 0.2 - Mostly clear 10 - - - -
26/04:00am 11.6 SSW 1 4 1009.1 - 0.2 - Mostly clear 10 - - - -
26/03:30am 12.2 S 7 10 1008.7 - 0.2 - Mostly clear 10 - - - -
26/03:00am 12.5 WNW 8 10 1008.4 F 0.2 Distant precip. Mostly cloudy 40 - - - -
26/02:30am 12.3 WNW 12 17 1008.7 - 0.2 Showers Mostly clear 10 - - - -
26/02:00am 13.0 NW 16 20 1008.5 - 0.2 - Mostly clear 10 - - - -
26/01:30am 13.0 NNW 12 18 1008.7 - 0.2 - Mostly clear 10 - - - -
26/01:00am 12.9 NNW 11 17 1009.1 - 0.2 - Mostly cloudy 10 - - - -
26/12:30am 12.8 NNW 8 12 1009.7 - 0.2 - Mostly cloudy 10 - - - -
26/12:00am 12.7 NNW 10 14 1010.3 F 0.2 Distant precip. Mostly cloudy 40 - - - -
 
Date/Time
EDT
Temp

°C
Wind Pressure Rain
since 9am
mm
Weather Cloud Vis
km
Sea
Height
m
Swell
Dir
 
Speed
knots
Gust
knots
hPa Trend Height
m
Period
s
Dir
25/11:30pm 12.6 NNW 9 13 1010.8 - 0.2 - Mostly cloudy 10 - - - -
25/11:00pm 12.6 NNW 9 14 1011.0 - 0.2 - Mostly cloudy 10 - - - -
25/10:30pm 12.7 N 9 15 1011.3 - 0.2 - Partly cloudy 10 - - - -
25/10:00pm 13.0 NNW 8 13 1011.4 - 0.2 - Partly cloudy 10 - - - -
25/09:30pm 13.1 NW 11 18 1011.4 - 0.2 - Mostly cloudy 10 - - - -
25/09:00pm 13.1 NNW 10 14 1011.3 R 0.2 Fine Mostly cloudy 40 - - - -
25/08:30pm 13.5 NW 13 20 1011.0 - 0.2 - Mostly clear 10 - - - -
25/08:00pm 13.7 NW 11 21 1010.7 - 0.2 - Mostly clear 10 - - - -
25/07:30pm 14.0 W 17 24 1010.8 - 0.2 - Mostly clear 10 - - - -
25/07:00pm 14.2 WNW 18 28 1010.3 - 0.2 - Mostly clear 10 - - - -
25/06:37pm 14.3 WNW 17 31 1010.3 - 0.2 - Partly cloudy 10 - - - -
25/06:30pm 14.5 WNW 17 21 1010.0 - 0.2 - Partly cloudy 10 - - - -
25/06:00pm 14.7 WNW 17 20 1009.4 R 0.2 Distant precip. Mostly cloudy 40 - - - -
25/05:30pm 15.2 WNW 19 32 1009.4 - 0.2 - Partly cloudy 10 - - - -
25/05:07pm 15.4 W 19 31 1009.2 - 0.2 - Partly cloudy 10 - - - -
25/05:00pm 15.6 WNW 21 29 1009.2 - 0.2 - Partly cloudy 10 - - - -
25/04:30pm 15.8 W 26 39 1008.7 - 0.2 - Partly cloudy 10 - - - -
25/04:26pm 15.7 WNW 28 36 1008.6 - 0.2 - Partly cloudy 10 - - - -
25/04:00pm 16.7 WNW 15 26 1008.0 - 0.2 - Partly cloudy 10 - - - -
25/03:57pm 16.6 WNW 16 26 1008.0 - 0.2 - Partly cloudy 10 - - - -
25/03:30pm 17.8 W 17 26 1008.1 - 0.2 - Partly cloudy 10 - - - -

Other Formats:

Comma delimited format used in spreadsheet applications
http://www.bom.gov.au/fwo/IDT60701/IDT60701.94975.axf

JavaScript Object Notation format (JSON) in row-major order
http://www.bom.gov.au/fwo/IDT60701/IDT60701.94975.json